Time,TemperatureF,DewpointF,PressureIn,WindDirection,WindDirectionDegrees,WindSpeedMPH,WindSpeedGustMPH,Humidity,HourlyPrecipIn,Conditions,Clouds,dailyrainin,SoftwareType,DateUTC
2013-03-20 00:02:00,64.6,33.3,29.99,WSW,245,7.0,7.0,31,0.00,,CLR,0.00,VWS V14.01,2013-03-20 07:02:00,
2013-03-20 00:08:00,64.5,33.2,29.98,West,276,5.0,8.0,31,0.00,,CLR,0.00,VWS V14.01,2013-03-20 07:08:00,
2013-03-20 00:14:00,64.3,33.8,29.98,West,275,12.0,12.0,32,0.00,,CLR,0.00,VWS V14.01,2013-03-20 07:14:00,
2013-03-20 00:20:00,64.2,33.8,29.98,West,273,9.0,11.0,32,0.00,,CLR,0.00,VWS V14.01,2013-03-20 07:20:00,
2013-03-20 00:25:00,64.1,33.7,29.98,WSW,247,8.0,9.0,32,0.00,,CLR,0.00,VWS V14.01,2013-03-20 07:25:00,
2013-03-20 00:30:00,64.3,33.8,29.98,WSW,250,3.0,13.0,32,0.00,,CLR,0.00,VWS V14.01,2013-03-20 07:30:00,
2013-03-20 00:35:00,64.2,33.8,29.98,WNW,283,15.0,15.0,32,0.00,,CLR,0.00,VWS V14.01,2013-03-20 07:35:00,
2013-03-20 00:40:00,64.0,34.3,29.98,WSW,238,8.0,12.0,33,0.00,,CLR,0.00,VWS V14.01,2013-03-20 07:40:00,
2013-03-20 00:45:00,63.9,35.0,29.98,West,279,13.0,16.0,34,0.00,,CLR,0.00,VWS V14.01,2013-03-20 07:45:00,
2013-03-20 00:50:00,63.7,36.3,29.98,West,280,14.0,14.0,36,0.00,,CLR,0.00,VWS V14.01,2013-03-20 07:50:00,
2013-03-20 00:55:00,63.5,36.1,29.98,West,270,8.0,14.0,36,0.00,,CLR,0.00,VWS V14.01,2013-03-20 07:55:00,
2013-03-20 01:58:00,60.1,38.1,29.98,West,267,12.0,14.0,44,0.00,,CLR,0.00,VWS V14.01,2013-03-20 08:58:00,
2013-03-20 02:03:00,59.8,37.9,29.98,West,271,12.0,15.0,44,0.00,,CLR,0.00,VWS V14.01,2013-03-20 09:03:00,
2013-03-20 02:09:00,59.6,38.2,29.98,West,274,24.0,24.0,45,0.00,,CLR,0.00,VWS V14.01,2013-03-20 09:09:00,
2013-03-20 02:15:00,59.2,38.5,29.98,WNW,290,19.0,19.0,46,0.00,,CLR,0.00,VWS V14.01,2013-03-20 09:15:00,
2013-03-20 02:20:00,58.9,38.7,29.98,West,273,11.0,20.0,47,0.00,,CLR,0.00,VWS V14.01,2013-03-20 09:20:00,
2013-03-20 02:25:00,58.8,38.6,29.98,WNW,284,13.0,23.0,47,0.00,,CLR,0.00,VWS V14.01,2013-03-20 09:25:00,
2013-03-20 02:30:00,58.7,38.5,29.98,WNW,286,7.0,14.0,47,0.00,,CLR,0.00,VWS V14.01,2013-03-20 09:30:00,
2013-03-20 02:38:00,58.7,38.5,29.98,WNW,285,15.0,23.0,47,0.00,,CLR,0.00,VWS V14.01,2013-03-20 09:38:00,
2013-03-20 02:43:00,58.7,39.1,29.98,WNW,283,15.0,15.0,48,0.00,,CLR,0.00,VWS V14.01,2013-03-20 09:43:00,
2013-03-20 02:49:00,58.5,38.9,29.97,West,281,15.0,15.0,48,0.00,,CLR,0.00,VWS V14.01,2013-03-20 09:49:00,
2013-03-20 02:54:00,58.4,38.8,29.98,West,275,12.0,12.0,48,0.00,,CLR,0.00,VWS V14.01,2013-03-20 09:54:00,
2013-03-20 03:00:00,58.4,38.8,29.97,West,270,12.0,12.0,48,0.00,,CLR,0.00,VWS V14.01,2013-03-20 10:00:00,
2013-03-20 03:05:00,58.3,38.7,29.97,West,279,7.0,13.0,48,0.00,,CLR,0.00,VWS V14.01,2013-03-20 10:05:00,
2013-03-20 03:10:00,58.3,38.7,29.97,West,270,6.0,11.0,48,0.00,,CLR,0.00,VWS V14.01,2013-03-20 10:10:00,
2013-03-20 03:15:00,58.2,38.6,29.97,West,279,4.0,8.0,48,0.00,,CLR,0.00,VWS V14.01,2013-03-20 10:15:00,
2013-03-20 03:21:00,58.2,38.6,29.97,WNW,283,4.0,7.0,48,0.00,,CLR,0.00,VWS V14.01,2013-03-20 10:21:00,
2013-03-20 03:26:00,58.1,38.5,29.97,WNW,283,2.0,5.0,48,0.00,,CLR,0.00,VWS V14.01,2013-03-20 10:26:00,
2013-03-20 03:32:00,58.0,39.0,29.96,WNW,283,0.0,0.0,49,0.00,,CLR,0.00,VWS V14.01,2013-03-20 10:32:00,
2013-03-20 03:38:00,57.8,38.8,29.96,WNW,283,0.0,0.0,49,0.00,,CLR,0.00,VWS V14.01,2013-03-20 10:38:00,
2013-03-20 03:43:00,57.5,38.5,29.96,WNW,283,0.0,0.0,49,0.00,,CLR,0.00,VWS V14.01,2013-03-20 10:43:00,
2013-03-20 03:49:00,57.2,38.8,29.96,WNW,283,0.0,0.0,50,0.00,,CLR,0.00,VWS V14.01,2013-03-20 10:49:00,
2013-03-20 03:54:00,56.9,39.0,29.96,WNW,283,0.0,0.0,51,0.00,,CLR,0.00,VWS V14.01,2013-03-20 10:54:00,
2013-03-20 04:00:00,56.5,38.6,29.95,WNW,283,0.0,0.0,51,0.00,,CLR,0.00,VWS V14.01,2013-03-20 11:00:00,
2013-03-20 04:05:00,56.3,38.4,29.95,WNW,283,0.0,0.0,51,0.00,,CLR,0.00,VWS V14.01,2013-03-20 11:05:00,
2013-03-20 04:11:00,56.0,38.6,29.94,WNW,283,0.0,0.0,52,0.00,,CLR,0.00,VWS V14.01,2013-03-20 11:11:00,
2013-03-20 04:17:00,55.8,38.9,29.94,WNW,283,2.0,2.0,53,0.00,,CLR,0.00,VWS V14.01,2013-03-20 11:17:00,
2013-03-20 04:22:00,55.5,38.7,29.94,WNW,283,0.0,0.0,53,0.00,,CLR,0.00,VWS V14.01,2013-03-20 11:22:00,
2013-03-20 04:27:00,55.4,38.6,29.94,WNW,283,0.0,2.0,53,0.00,,CLR,0.00,VWS V14.01,2013-03-20 11:27:00,
2013-03-20 04:33:00,55.2,38.9,29.94,WNW,283,0.0,0.0,54,0.00,,CLR,0.00,VWS V14.01,2013-03-20 11:33:00,
2013-03-20 04:39:00,55.0,39.2,29.94,WNW,283,0.0,0.0,55,0.00,,CLR,0.00,VWS V14.01,2013-03-20 11:39:00,
2013-03-20 04:44:00,54.8,39.0,29.94,WNW,283,0.0,0.0,55,0.00,,CLR,0.00,VWS V14.01,2013-03-20 11:44:00,
2013-03-20 04:50:00,54.6,38.8,29.93,WNW,283,0.0,0.0,55,0.00,,CLR,0.00,VWS V14.01,2013-03-20 11:50:00,
2013-03-20 04:55:00,54.4,38.6,29.93,WNW,283,0.0,0.0,55,0.00,,CLR,0.00,VWS V14.01,2013-03-20 11:55:00,
2013-03-20 05:00:00,54.2,38.9,29.94,WNW,283,0.0,0.0,56,0.00,,CLR,0.00,VWS V14.01,2013-03-20 12:00:00,
2013-03-20 05:05:00,54.1,38.8,29.93,WNW,283,0.0,2.0,56,0.00,,CLR,0.00,VWS V14.01,2013-03-20 12:05:00,
2013-03-20 05:11:00,54.1,38.8,29.93,WNW,283,0.0,0.0,56,0.00,,CLR,0.00,VWS V14.01,2013-03-20 12:11:00,
2013-03-20 05:17:00,54.0,38.7,29.93,WNW,283,0.0,0.0,56,0.00,,CLR,0.00,VWS V14.01,2013-03-20 12:17:00,
2013-03-20 05:23:00,53.9,38.6,29.93,WNW,283,0.0,0.0,56,0.00,,CLR,0.00,VWS V14.01,2013-03-20 12:23:00,
2013-03-20 05:29:00,53.8,38.5,29.94,WNW,283,0.0,0.0,56,0.00,,CLR,0.00,VWS V14.01,2013-03-20 12:29:00,
2013-03-20 05:34:00,53.8,38.9,29.94,WNW,283,0.0,6.0,57,0.00,,CLR,0.00,VWS V14.01,2013-03-20 12:34:00,
2013-03-20 05:40:00,53.8,38.9,29.94,WNW,283,0.0,1.0,57,0.00,,CLR,0.00,VWS V14.01,2013-03-20 12:40:00,
2013-03-20 05:45:00,53.8,38.9,29.94,WNW,283,0.0,0.0,57,0.00,,CLR,0.00,VWS V14.01,2013-03-20 12:45:00,
2013-03-20 05:50:00,53.9,39.0,29.94,WNW,283,0.0,2.0,57,0.00,,CLR,0.00,VWS V14.01,2013-03-20 12:50:00,
2013-03-20 05:56:00,53.9,39.0,29.94,WNW,283,1.0,1.0,57,0.00,,CLR,0.00,VWS V14.01,2013-03-20 12:56:00,
2013-03-20 06:04:00,53.7,38.8,29.93,WNW,283,0.0,0.0,57,0.00,,CLR,0.00,VWS V14.01,2013-03-20 13:04:00,
2013-03-20 06:09:00,53.6,38.8,29.94,WNW,283,0.0,0.0,57,0.00,,CLR,0.00,VWS V14.01,2013-03-20 13:09:00,
2013-03-20 06:15:00,53.4,38.6,29.93,WNW,283,0.0,0.0,57,0.00,,CLR,0.00,VWS V14.01,2013-03-20 13:15:00,
2013-03-20 06:20:00,53.2,38.8,29.93,WNW,283,0.0,0.0,58,0.00,,CLR,0.00,VWS V14.01,2013-03-20 13:20:00,
2013-03-20 06:25:00,53.0,39.1,29.94,WNW,283,0.0,0.0,59,0.00,,CLR,0.00,VWS V14.01,2013-03-20 13:25:00,
2013-03-20 06:31:00,52.8,38.9,29.94,WNW,283,0.0,0.0,59,0.00,,CLR,0.00,VWS V14.01,2013-03-20 13:31:00,
2013-03-20 06:36:00,52.5,38.6,29.95,WNW,283,0.0,0.0,59,0.00,,CLR,0.00,VWS V14.01,2013-03-20 13:36:00,
2013-03-20 06:42:00,52.3,38.8,29.95,WNW,283,0.0,0.0,60,0.00,,CLR,0.00,VWS V14.01,2013-03-20 13:42:00,
2013-03-20 06:47:00,52.0,39.0,29.95,WNW,283,0.0,0.0,61,0.00,,CLR,0.00,VWS V14.01,2013-03-20 13:47:00,
2013-03-20 06:52:00,51.9,38.9,29.95,WNW,283,0.0,0.0,61,0.00,,CLR,0.00,VWS V14.01,2013-03-20 13:52:00,
2013-03-20 06:57:00,51.7,38.7,29.96,WNW,283,0.0,0.0,61,0.00,,CLR,0.00,VWS V14.01,2013-03-20 13:57:00,
2013-03-20 07:02:00,51.6,38.6,29.95,WNW,283,0.0,2.0,61,0.00,,CLR,0.00,VWS V14.01,2013-03-20 14:02:00,
2013-03-20 07:07:00,51.6,38.6,29.95,WNW,283,1.0,1.0,61,0.00,,CLR,0.00,VWS V14.01,2013-03-20 14:07:00,
2013-03-20 07:12:00,51.6,38.6,29.95,WNW,283,0.0,1.0,61,0.00,,CLR,0.00,VWS V14.01,2013-03-20 14:12:00,
2013-03-20 07:18:00,51.7,38.7,29.95,WNW,283,2.0,2.0,61,0.00,,CLR,0.00,VWS V14.01,2013-03-20 14:18:00,
2013-03-20 07:23:00,52.9,39.8,29.95,WNW,283,0.0,4.0,61,0.00,,CLR,0.00,VWS V14.01,2013-03-20 14:23:00,
2013-03-20 07:28:00,53.6,38.8,29.95,West,276,5.0,5.0,57,0.00,,CLR,0.00,VWS V14.01,2013-03-20 14:28:00,
2013-03-20 07:37:00,56.2,38.8,29.95,WSW,246,3.0,5.0,52,0.00,,CLR,0.00,VWS V14.01,2013-03-20 14:37:00,
2013-03-20 07:42:00,57.3,39.3,29.95,WSW,246,0.0,3.0,51,0.00,,CLR,0.00,VWS V14.01,2013-03-20 14:42:00,
2013-03-20 07:47:00,57.6,39.1,29.95,WSW,246,0.0,3.0,50,0.00,,CLR,0.00,VWS V14.01,2013-03-20 14:47:00,
2013-03-20 07:52:00,57.7,39.2,29.95,WSW,246,0.0,3.0,50,0.00,,CLR,0.00,VWS V14.01,2013-03-20 14:52:00,
2013-03-20 07:57:00,57.9,39.4,29.96,West,281,2.0,2.0,50,0.00,,CLR,0.00,VWS V14.01,2013-03-20 14:57:00,
2013-03-20 08:03:00,58.0,39.5,29.96,West,281,0.0,2.0,50,0.00,,CLR,0.00,VWS V14.01,2013-03-20 15:03:00,
2013-03-20 08:08:00,58.1,39.6,29.96,West,275,2.0,2.0,50,0.00,,CLR,0.00,VWS V14.01,2013-03-20 15:08:00,
2013-03-20 08:13:00,58.7,39.1,29.96,West,271,4.0,4.0,48,0.00,,CLR,0.00,VWS V14.01,2013-03-20 15:13:00,
2013-03-20 08:18:00,59.0,39.4,29.97,West,275,4.0,4.0,48,0.00,,CLR,0.00,VWS V14.01,2013-03-20 15:18:00,
2013-03-20 08:23:00,59.8,39.5,29.96,West,265,7.0,7.0,47,0.00,,CLR,0.00,VWS V14.01,2013-03-20 15:23:00,
2013-03-20 08:29:00,60.2,38.8,29.97,West,264,5.0,7.0,45,0.00,,CLR,0.00,VWS V14.01,2013-03-20 15:29:00,
2013-03-20 08:34:00,61.3,38.6,29.97,West,275,5.0,6.0,43,0.00,,CLR,0.00,VWS V14.01,2013-03-20 15:34:00,
2013-03-20 08:39:00,61.6,38.9,29.97,West,270,7.0,7.0,43,0.00,,CLR,0.00,VWS V14.01,2013-03-20 15:39:00,
2013-03-20 08:44:00,62.3,38.9,29.97,West,261,6.0,7.0,42,0.00,,CLR,0.00,VWS V14.01,2013-03-20 15:44:00,
2013-03-20 08:49:00,62.5,39.1,29.97,WSW,254,6.0,7.0,42,0.00,,CLR,0.00,VWS V14.01,2013-03-20 15:49:00,
2013-03-20 08:54:00,62.8,39.4,29.97,West,269,4.0,5.0,42,0.00,,CLR,0.00,VWS V14.01,2013-03-20 15:54:00,
2013-03-20 08:59:00,62.9,38.9,29.97,WSW,242,4.0,5.0,41,0.00,,CLR,0.00,VWS V14.01,2013-03-20 15:59:00,
2013-03-20 09:05:00,63.2,39.1,29.97,West,259,4.0,8.0,41,0.00,,CLR,0.00,VWS V14.01,2013-03-20 16:05:00,
2013-03-20 09:10:00,63.4,39.3,29.97,West,278,11.0,11.0,41,0.00,,CLR,0.00,VWS V14.01,2013-03-20 16:10:00,
2013-03-20 09:15:00,63.8,39.7,29.97,SW,236,11.0,11.0,41,0.00,,CLR,0.00,VWS V14.01,2013-03-20 16:15:00,
2013-03-20 09:20:00,63.9,39.8,29.98,West,281,5.0,11.0,41,0.00,,CLR,0.00,VWS V14.01,2013-03-20 16:20:00,
2013-03-20 09:25:00,64.0,40.5,29.97,West,271,12.0,12.0,42,0.00,,CLR,0.00,VWS V14.01,2013-03-20 16:25:00,
2013-03-20 09:30:00,64.1,39.9,29.97,WNW,296,8.0,12.0,41,0.00,,CLR,0.00,VWS V14.01,2013-03-20 16:30:00,
2013-03-20 09:36:00,64.1,40.6,29.97,West,275,14.0,14.0,42,0.00,,CLR,0.00,VWS V14.01,2013-03-20 16:36:00,
2013-03-20 09:41:00,64.1,40.6,29.97,WNW,298,12.0,14.0,42,0.00,,CLR,0.00,VWS V14.01,2013-03-20 16:41:00,
2013-03-20 09:46:00,64.0,40.5,29.97,WNW,296,7.0,12.0,42,0.00,,CLR,0.00,VWS V14.01,2013-03-20 16:46:00,
2013-03-20 09:51:00,64.4,40.8,29.98,WNW,294,12.0,12.0,42,0.00,,CLR,0.00,VWS V14.01,2013-03-20 16:51:00,
2013-03-20 09:56:00,64.5,40.3,29.98,NW,304,2.0,12.0,41,0.00,,CLR,0.00,VWS V14.01,2013-03-20 16:56:00,
2013-03-20 10:01:00,64.5,40.3,29.97,West,278,6.0,12.0,41,0.00,,CLR,0.00,VWS V14.01,2013-03-20 17:01:00,
2013-03-20 10:06:00,64.7,40.5,29.97,WNW,283,8.0,8.0,41,0.00,,CLR,0.00,VWS V14.01,2013-03-20 17:06:00,
2013-03-20 10:11:00,64.9,40.7,29.97,West,279,8.0,8.0,41,0.00,,CLR,0.00,VWS V14.01,2013-03-20 17:11:00,
2013-03-20 10:17:00,65.0,40.1,29.98,WNW,294,12.0,12.0,40,0.00,,CLR,0.00,VWS V14.01,2013-03-20 17:17:00,
2013-03-20 10:22:00,65.2,40.3,29.98,WSW,250,4.0,15.0,40,0.00,,CLR,0.00,VWS V14.01,2013-03-20 17:22:00,
2013-03-20 10:27:00,65.4,40.5,29.98,WNW,294,11.0,11.0,40,0.00,,CLR,0.00,VWS V14.01,2013-03-20 17:27:00,
2013-03-20 10:32:00,66.3,40.6,29.97,WNW,291,8.0,11.0,39,0.00,,CLR,0.00,VWS V14.01,2013-03-20 17:32:00,
2013-03-20 10:37:00,66.6,40.9,29.97,WNW,282,6.0,11.0,39,0.00,,CLR,0.00,VWS V14.01,2013-03-20 17:37:00,
2013-03-20 10:43:00,66.9,40.5,29.97,NW,306,5.0,12.0,38,0.00,,CLR,0.00,VWS V14.01,2013-03-20 17:43:00,
2013-03-20 10:48:00,67.1,40.7,29.96,West,279,13.0,13.0,38,0.00,,CLR,0.00,VWS V14.01,2013-03-20 17:48:00,
2013-03-20 10:53:00,67.4,40.9,29.96,NW,313,7.0,13.0,38,0.00,,CLR,0.00,VWS V14.01,2013-03-20 17:53:00,
2013-03-20 10:58:00,67.2,40.1,29.97,WNW,288,9.0,11.0,37,0.00,,CLR,0.00,VWS V14.01,2013-03-20 17:58:00,
2013-03-20 11:03:00,67.5,40.3,29.96,West,276,12.0,12.0,37,0.00,,CLR,0.00,VWS V14.01,2013-03-20 18:03:00,
2013-03-20 11:08:00,67.7,39.8,29.96,WNW,290,7.0,12.0,36,0.00,,CLR,0.00,VWS V14.01,2013-03-20 18:08:00,
2013-03-20 11:13:00,67.5,40.3,29.96,NW,312,15.0,15.0,37,0.00,,CLR,0.00,VWS V14.01,2013-03-20 18:13:00,
2013-03-20 11:19:00,67.6,39.7,29.96,WNW,284,14.0,15.0,36,0.00,,CLR,0.00,VWS V14.01,2013-03-20 18:19:00,
2013-03-20 11:24:00,67.5,40.3,29.96,WNW,295,7.0,20.0,37,0.00,,CLR,0.00,VWS V14.01,2013-03-20 18:24:00,
2013-03-20 11:29:00,67.6,39.7,29.96,WNW,296,18.0,20.0,36,0.00,,CLR,0.00,VWS V14.01,2013-03-20 18:29:00,
2013-03-20 11:34:00,67.7,40.5,29.96,WNW,286,11.0,11.0,37,0.00,,CLR,0.00,VWS V14.01,2013-03-20 18:34:00,
2013-03-20 11:39:00,67.8,39.9,29.96,WNW,291,6.0,11.0,36,0.00,,CLR,0.00,VWS V14.01,2013-03-20 18:39:00,
2013-03-20 11:44:00,67.8,40.6,29.96,WNW,284,8.0,14.0,37,0.00,,CLR,0.00,VWS V14.01,2013-03-20 18:44:00,
2013-03-20 11:49:00,67.9,40.7,29.96,WNW,291,14.0,14.0,37,0.00,,CLR,0.00,VWS V14.01,2013-03-20 18:49:00,
2013-03-20 11:54:00,67.9,40.0,29.96,WNW,290,15.0,15.0,36,0.00,,CLR,0.00,VWS V14.01,2013-03-20 18:54:00,
2013-03-20 12:00:00,67.8,39.9,29.96,WNW,293,15.0,15.0,36,0.00,,CLR,0.00,VWS V14.01,2013-03-20 19:00:00,
2013-03-20 12:05:00,67.9,40.0,29.95,WNW,297,16.0,21.0,36,0.00,,CLR,0.00,VWS V14.01,2013-03-20 19:05:00,
2013-03-20 12:10:00,68.2,40.2,29.96,WNW,284,9.0,21.0,36,0.00,,CLR,0.00,VWS V14.01,2013-03-20 19:10:00,
2013-03-20 12:15:00,68.8,40.1,29.96,NW,304,19.0,21.0,35,0.00,,CLR,0.00,VWS V14.01,2013-03-20 19:15:00,
2013-03-20 12:20:00,68.8,40.8,29.96,West,271,2.0,19.0,36,0.00,,CLR,0.00,VWS V14.01,2013-03-20 19:20:00,
2013-03-20 12:26:00,69.1,41.0,29.95,WNW,293,16.0,19.0,36,0.00,,CLR,0.00,VWS V14.01,2013-03-20 19:26:00,
2013-03-20 12:31:00,69.5,40.7,29.96,WNW,287,5.0,19.0,35,0.00,,CLR,0.00,VWS V14.01,2013-03-20 19:31:00,
2013-03-20 12:36:00,69.6,40.8,29.96,West,275,14.0,19.0,35,0.00,,CLR,0.00,VWS V14.01,2013-03-20 19:36:00,
2013-03-20 12:41:00,69.9,41.0,29.96,West,269,7.0,19.0,35,0.00,,CLR,0.00,VWS V14.01,2013-03-20 19:41:00,
2013-03-20 12:46:00,70.1,40.5,29.96,West,274,16.0,19.0,34,0.00,,CLR,0.00,VWS V14.01,2013-03-20 19:46:00,
2013-03-20 12:51:00,70.4,40.7,29.95,WSW,257,4.0,19.0,34,0.00,,CLR,0.00,VWS V14.01,2013-03-20 19:51:00,
2013-03-20 12:57:00,70.8,41.1,29.95,WSW,240,5.0,5.0,34,0.00,,CLR,0.00,VWS V14.01,2013-03-20 19:57:00,
2013-03-20 13:02:00,71.4,42.3,29.95,SSW,211,6.0,6.0,35,0.00,,CLR,0.00,VWS V14.01,2013-03-20 20:02:00,
2013-03-20 13:07:00,71.6,41.8,29.95,WSW,248,0.0,6.0,34,0.00,,CLR,0.00,VWS V14.01,2013-03-20 20:07:00,
2013-03-20 13:12:00,71.7,41.1,29.95,WNW,295,8.0,11.0,33,0.00,,CLR,0.00,VWS V14.01,2013-03-20 20:12:00,
2013-03-20 13:17:00,71.7,41.1,29.95,WNW,291,7.0,11.0,33,0.00,,CLR,0.00,VWS V14.01,2013-03-20 20:17:00,
2013-03-20 13:22:00,72.0,40.6,29.94,WNW,284,11.0,11.0,32,0.00,,CLR,0.00,VWS V14.01,2013-03-20 20:22:00,
2013-03-20 13:28:00,71.9,40.5,29.94,NW,306,14.0,14.0,32,0.00,,CLR,0.00,VWS V14.01,2013-03-20 20:28:00,
2013-03-20 13:33:00,71.7,41.1,29.93,WNW,294,8.0,14.0,33,0.00,,CLR,0.00,VWS V14.01,2013-03-20 20:33:00,
2013-03-20 13:38:00,71.5,40.1,29.93,West,269,3.0,14.0,32,0.00,,CLR,0.00,VWS V14.01,2013-03-20 20:38:00,
2013-03-20 13:43:00,71.3,40.0,29.93,West,277,11.0,11.0,32,0.00,,CLR,0.00,VWS V14.01,2013-03-20 20:43:00,
2013-03-20 13:48:00,71.3,40.0,29.93,WNW,290,7.0,11.0,32,0.00,,CLR,0.00,VWS V14.01,2013-03-20 20:48:00,
2013-03-20 13:53:00,71.5,39.3,29.93,WNW,300,9.0,11.0,31,0.00,,CLR,0.00,VWS V14.01,2013-03-20 20:53:00,
2013-03-20 13:59:00,71.6,38.6,29.93,West,268,8.0,11.0,30,0.00,,CLR,0.00,VWS V14.01,2013-03-20 20:59:00,
2013-03-20 14:04:00,71.4,39.2,29.93,NW,306,17.0,17.0,31,0.00,,CLR,0.00,VWS V14.01,2013-03-20 21:04:00,
2013-03-20 14:09:00,71.5,39.3,29.92,WNW,300,7.0,17.0,31,0.00,,CLR,0.00,VWS V14.01,2013-03-20 21:09:00,
2013-03-20 14:15:00,71.9,39.7,29.92,West,273,14.0,17.0,31,0.00,,CLR,0.00,VWS V14.01,2013-03-20 21:15:00,
2013-03-20 14:21:00,72.1,39.0,29.91,WNW,300,5.0,17.0,30,0.00,,CLR,0.00,VWS V14.01,2013-03-20 21:21:00,
2013-03-20 14:26:00,72.5,37.6,29.91,NW,306,15.0,17.0,28,0.00,,CLR,0.00,VWS V14.01,2013-03-20 21:26:00,
2013-03-20 14:32:00,72.5,37.6,29.91,NW,306,15.0,17.0,28,0.00,,CLR,0.00,VWS V14.01,2013-03-20 21:32:00,
2013-03-20 14:37:00,72.0,35.3,29.91,NW,325,9.0,17.0,26,0.00,,CLR,0.00,VWS V14.01,2013-03-20 21:37:00,
2013-03-20 14:42:00,72.2,35.4,29.91,West,267,14.0,17.0,26,0.00,,CLR,0.00,VWS V14.01,2013-03-20 21:42:00,
2013-03-20 14:48:00,72.2,28.9,29.91,WNW,303,7.0,14.0,20,0.00,,CLR,0.00,VWS V14.01,2013-03-20 21:48:00,
2013-03-20 14:53:00,72.2,28.9,29.91,WNW,303,7.0,14.0,20,0.00,,CLR,0.00,VWS V14.01,2013-03-20 21:53:00,
2013-03-20 14:59:00,72.4,26.5,29.91,WNW,284,13.0,14.0,18,0.00,,CLR,0.00,VWS V14.01,2013-03-20 21:59:00,
2013-03-20 15:04:00,72.3,26.5,29.91,WNW,291,23.0,23.0,18,0.00,,CLR,0.00,VWS V14.01,2013-03-20 22:04:00,
2013-03-20 15:09:00,72.0,26.2,29.91,WNW,303,28.0,28.0,18,0.00,,CLR,0.00,VWS V14.01,2013-03-20 22:09:00,
2013-03-20 15:14:00,71.9,28.7,29.91,NW,315,7.0,28.0,20,0.00,,CLR,0.00,VWS V14.01,2013-03-20 22:14:00,
2013-03-20 15:19:00,71.9,28.7,29.91,NW,315,7.0,28.0,20,0.00,,CLR,0.00,VWS V14.01,2013-03-20 22:19:00,
2013-03-20 15:24:00,72.4,29.1,29.91,West,275,19.0,28.0,20,0.00,,CLR,0.00,VWS V14.01,2013-03-20 22:24:00,
2013-03-20 15:30:00,71.9,29.9,29.91,NW,319,19.0,28.0,21,0.00,,CLR,0.00,VWS V14.01,2013-03-20 22:30:00,
2013-03-20 15:35:00,71.2,29.3,29.91,West,279,14.0,28.0,21,0.00,,CLR,0.00,VWS V14.01,2013-03-20 22:35:00,
2013-03-20 15:40:00,71.2,29.3,29.91,West,279,14.0,28.0,21,0.00,,CLR,0.00,VWS V14.01,2013-03-20 22:40:00,
2013-03-20 15:45:00,70.4,30.9,29.92,West,269,12.0,28.0,23,0.00,,CLR,0.00,VWS V14.01,2013-03-20 22:45:00,
2013-03-20 15:50:00,69.7,29.2,29.92,WNW,288,22.0,28.0,22,0.00,,CLR,0.00,VWS V14.01,2013-03-20 22:50:00,
2013-03-20 15:56:00,69.3,32.0,29.92,WNW,302,14.0,28.0,25,0.00,,CLR,0.00,VWS V14.01,2013-03-20 22:56:00,
2013-03-20 16:01:00,69.3,32.0,29.92,WNW,302,14.0,28.0,25,0.00,,CLR,0.00,VWS V14.01,2013-03-20 23:01:00,
2013-03-20 16:07:00,69.4,32.1,29.92,WNW,285,14.0,14.0,25,0.00,,CLR,0.00,VWS V14.01,2013-03-20 23:07:00,
2013-03-20 16:12:00,69.1,29.8,29.92,WNW,288,16.0,16.0,23,0.00,,CLR,0.00,VWS V14.01,2013-03-20 23:12:00,
2013-03-20 16:17:00,69.1,29.8,29.92,WNW,288,16.0,16.0,23,0.00,,CLR,0.00,VWS V14.01,2013-03-20 23:17:00,
2013-03-20 16:23:00,69.2,29.9,29.92,West,275,21.0,21.0,23,0.00,,CLR,0.00,VWS V14.01,2013-03-20 23:23:00,
2013-03-20 16:30:00,69.2,28.8,29.93,WNW,293,14.0,21.0,22,0.00,,CLR,0.00,VWS V14.01,2013-03-20 23:30:00,
2013-03-20 16:35:00,69.2,28.8,29.93,WNW,293,14.0,21.0,22,0.00,,CLR,0.00,VWS V14.01,2013-03-20 23:35:00,
2013-03-20 16:42:00,69.2,28.8,29.93,WNW,302,11.0,21.0,22,0.00,,CLR,0.00,VWS V14.01,2013-03-20 23:42:00,
2013-03-20 16:48:00,69.4,30.0,29.93,WNW,284,12.0,21.0,23,0.00,,CLR,0.00,VWS V14.01,2013-03-20 23:48:00,
2013-03-20 16:54:00,69.2,27.6,29.92,WNW,291,11.0,21.0,21,0.00,,CLR,0.00,VWS V14.01,2013-03-20 23:54:00,
2013-03-20 17:00:00,69.3,24.0,29.92,WNW,298,15.0,21.0,18,0.00,,CLR,0.00,VWS V14.01,2013-03-21 00:00:00,
2013-03-20 17:05:00,68.7,26.0,29.93,WNW,293,21.0,21.0,20,0.00,,CLR,0.00,VWS V14.01,2013-03-21 00:05:00,
2013-03-20 17:10:00,68.7,26.0,29.93,WNW,293,21.0,21.0,20,0.00,,CLR,0.00,VWS V14.01,2013-03-21 00:10:00,
2013-03-20 17:15:00,68.4,25.8,29.93,WNW,288,18.0,21.0,20,0.00,,CLR,0.00,VWS V14.01,2013-03-21 00:15:00,
2013-03-20 17:21:00,68.0,27.8,29.93,NW,305,21.0,21.0,22,0.00,,CLR,0.00,VWS V14.01,2013-03-21 00:21:00,
2013-03-20 17:26:00,67.6,29.6,29.92,WNW,303,7.0,21.0,24,0.00,,CLR,0.00,VWS V14.01,2013-03-21 00:26:00,
2013-03-20 17:32:00,67.1,28.1,29.92,NNW,332,16.0,21.0,23,0.00,,CLR,0.00,VWS V14.01,2013-03-21 00:32:00,
2013-03-20 17:37:00,66.9,30.0,29.92,West,280,16.0,21.0,25,0.00,,CLR,0.00,VWS V14.01,2013-03-21 00:37:00,
2013-03-20 17:42:00,66.9,30.9,29.92,West,281,12.0,21.0,26,0.00,,CLR,0.00,VWS V14.01,2013-03-21 00:42:00,
2013-03-20 17:47:00,66.8,30.8,29.92,WNW,290,13.0,21.0,26,0.00,,CLR,0.00,VWS V14.01,2013-03-21 00:47:00,
2013-03-20 17:52:00,66.6,30.7,29.92,West,274,12.0,21.0,26,0.00,,CLR,0.00,VWS V14.01,2013-03-21 00:52:00,
2013-03-20 17:58:00,66.3,32.2,29.92,West,271,8.0,12.0,28,0.00,,CLR,0.00,VWS V14.01,2013-03-21 00:58:00,
2013-03-20 18:03:00,66.1,33.0,29.93,West,276,15.0,15.0,29,0.00,,CLR,0.00,VWS V14.01,2013-03-21 01:03:00,
2013-03-20 18:08:00,65.7,33.5,29.93,West,280,19.0,19.0,30,0.00,,CLR,0.00,VWS V14.01,2013-03-21 01:08:00,
2013-03-20 18:13:00,65.4,32.3,29.92,West,278,7.0,19.0,29,0.00,,CLR,0.00,VWS V14.01,2013-03-21 01:13:00,
2013-03-20 18:18:00,65.2,33.0,29.92,WNW,290,15.0,19.0,30,0.00,,CLR,0.00,VWS V14.01,2013-03-21 01:18:00,
2013-03-20 18:23:00,64.9,32.8,29.92,West,273,21.0,21.0,30,0.00,,CLR,0.00,VWS V14.01,2013-03-21 01:23:00,
2013-03-20 18:29:00,64.6,34.1,29.92,West,277,14.0,21.0,32,0.00,,CLR,0.00,VWS V14.01,2013-03-21 01:29:00,
2013-03-20 18:34:00,64.3,34.6,29.92,West,275,16.0,16.0,33,0.00,,CLR,0.00,VWS V14.01,2013-03-21 01:34:00,
2013-03-20 18:39:00,64.1,35.2,29.92,WNW,290,9.0,16.0,34,0.00,,CLR,0.00,VWS V14.01,2013-03-21 01:39:00,
2013-03-20 18:44:00,63.9,35.7,29.92,West,268,14.0,14.0,35,0.00,,CLR,0.00,VWS V14.01,2013-03-21 01:44:00,
2013-03-20 18:49:00,63.7,36.3,29.92,West,278,16.0,16.0,36,0.00,,CLR,0.00,VWS V14.01,2013-03-21 01:49:00,
2013-03-20 18:54:00,63.5,36.8,29.92,WNW,283,7.0,16.0,37,0.00,,CLR,0.00,VWS V14.01,2013-03-21 01:54:00,
2013-03-20 19:00:00,63.3,37.3,29.92,WNW,284,6.0,16.0,38,0.00,,CLR,0.00,VWS V14.01,2013-03-21 02:00:00,
2013-03-20 19:05:00,63.0,37.0,29.92,West,271,8.0,16.0,38,0.00,,CLR,0.00,VWS V14.01,2013-03-21 02:05:00,
2013-03-20 19:10:00,62.7,38.0,29.92,West,270,12.0,16.0,40,0.00,,CLR,0.00,VWS V14.01,2013-03-21 02:10:00,
2013-03-20 19:15:00,62.5,37.9,29.91,WSW,257,5.0,16.0,40,0.00,,CLR,0.00,VWS V14.01,2013-03-21 02:15:00,
2013-03-20 19:20:00,62.5,37.9,29.91,West,263,4.0,16.0,40,0.00,,CLR,0.00,VWS V14.01,2013-03-21 02:20:00,
2013-03-20 19:25:00,62.5,36.6,29.91,WSW,253,12.0,16.0,38,0.00,,CLR,0.00,VWS V14.01,2013-03-21 02:25:00,
2013-03-20 19:31:00,62.6,36.7,29.91,West,262,11.0,13.0,38,0.00,,CLR,0.00,VWS V14.01,2013-03-21 02:31:00,
2013-03-20 19:36:00,62.5,35.9,29.91,WSW,244,14.0,15.0,37,0.00,,CLR,0.00,VWS V14.01,2013-03-21 02:36:00,
2013-03-20 19:42:00,62.5,35.2,29.90,WSW,237,8.0,11.0,36,0.00,,CLR,0.00,VWS V14.01,2013-03-21 02:42:00,
2013-03-20 19:47:00,62.5,34.5,29.90,WNW,284,5.0,5.0,35,0.00,,CLR,0.00,VWS V14.01,2013-03-21 02:47:00,
2013-03-20 19:52:00,62.5,33.0,29.90,West,271,7.0,13.0,33,0.00,,CLR,0.00,VWS V14.01,2013-03-21 02:52:00,
2013-03-20 19:57:00,62.6,33.1,29.90,WNW,297,12.0,12.0,33,0.00,,CLR,0.00,VWS V14.01,2013-03-21 02:57:00,
2013-03-20 20:02:00,62.7,33.2,29.91,SW,233,3.0,5.0,33,0.00,,CLR,0.00,VWS V14.01,2013-03-21 03:02:00,
2013-03-20 20:08:00,62.7,32.4,29.91,West,274,5.0,7.0,32,0.00,,CLR,0.00,VWS V14.01,2013-03-21 03:08:00,
2013-03-20 20:13:00,62.6,32.3,29.92,West,278,9.0,9.0,32,0.00,,CLR,0.00,VWS V14.01,2013-03-21 03:13:00,
2013-03-20 20:18:00,62.4,32.9,29.91,West,274,11.0,18.0,33,0.00,,CLR,0.00,VWS V14.01,2013-03-21 03:18:00,
2013-03-20 20:23:00,62.1,34.8,29.91,West,275,12.0,21.0,36,0.00,,CLR,0.00,VWS V14.01,2013-03-21 03:23:00,
2013-03-20 20:29:00,61.7,36.5,29.91,West,259,13.0,16.0,39,0.00,,CLR,0.00,VWS V14.01,2013-03-21 03:29:00,
2013-03-20 20:34:00,61.3,37.4,29.91,West,275,5.0,15.0,41,0.00,,CLR,0.00,VWS V14.01,2013-03-21 03:34:00,
2013-03-20 20:40:00,61.1,35.3,29.91,West,271,11.0,13.0,38,0.00,,CLR,0.00,VWS V14.01,2013-03-21 03:40:00,
2013-03-20 20:45:00,61.1,35.3,29.91,WNW,287,5.0,12.0,38,0.00,,CLR,0.00,VWS V14.01,2013-03-21 03:45:00,
2013-03-20 20:50:00,61.0,35.2,29.92,West,275,14.0,14.0,38,0.00,,CLR,0.00,VWS V14.01,2013-03-21 03:50:00,
2013-03-20 20:55:00,60.9,35.8,29.91,SW,234,8.0,16.0,39,0.00,,CLR,0.00,VWS V14.01,2013-03-21 03:55:00,
2013-03-20 21:00:00,60.9,35.1,29.91,West,263,12.0,12.0,38,0.00,,CLR,0.00,VWS V14.01,2013-03-21 04:00:00,
2013-03-20 21:02:00,60.9,34.5,29.91,WNW,297,21.0,21.0,37,0.00,,CLR,0.00,VWS V14.01,2013-03-21 04:02:00,
2013-03-20 21:04:00,60.9,34.5,29.91,West,277,9.0,21.0,37,0.00,,CLR,0.00,VWS V14.01,2013-03-21 04:04:00,
2013-03-20 21:09:00,60.9,35.1,29.91,West,281,11.0,21.0,38,0.00,,CLR,0.00,VWS V14.01,2013-03-21 04:09:00,
2013-03-20 21:14:00,60.9,34.5,29.91,West,270,6.0,15.0,37,0.00,,CLR,0.00,VWS V14.01,2013-03-21 04:14:00,
2013-03-20 21:19:00,60.9,34.5,29.91,WNW,298,13.0,16.0,37,0.00,,CLR,0.00,VWS V14.01,2013-03-21 04:19:00,
2013-03-20 21:25:00,60.9,34.5,29.91,WSW,250,7.0,7.0,37,0.00,,CLR,0.00,VWS V14.01,2013-03-21 04:25:00,
2013-03-20 21:30:00,60.9,34.5,29.92,West,259,11.0,14.0,37,0.00,,CLR,0.00,VWS V14.01,2013-03-21 04:30:00,
2013-03-20 21:35:00,60.9,34.5,29.92,WNW,284,9.0,14.0,37,0.00,,CLR,0.00,VWS V14.01,2013-03-21 04:35:00,
2013-03-20 21:40:00,60.8,35.1,29.92,WSW,254,6.0,11.0,38,0.00,,CLR,0.00,VWS V14.01,2013-03-21 04:40:00,
2013-03-20 21:45:00,60.7,35.6,29.93,West,271,16.0,21.0,39,0.00,,CLR,0.00,VWS V14.01,2013-03-21 04:45:00,
2013-03-20 21:50:00,60.6,36.2,29.93,WNW,291,14.0,16.0,40,0.00,,CLR,0.00,VWS V14.01,2013-03-21 04:50:00,
2013-03-20 21:56:00,60.4,36.6,29.93,West,277,12.0,12.0,41,0.00,,CLR,0.00,VWS V14.01,2013-03-21 04:56:00,
2013-03-20 22:01:00,60.2,37.0,29.92,West,265,6.0,7.0,42,0.00,,CLR,0.00,VWS V14.01,2013-03-21 05:01:00,
2013-03-20 22:07:00,60.1,37.0,29.92,West,273,12.0,15.0,42,0.00,,CLR,0.00,VWS V14.01,2013-03-21 05:07:00,
2013-03-20 22:12:00,59.9,37.4,29.92,West,267,18.0,18.0,43,0.00,,CLR,0.00,VWS V14.01,2013-03-21 05:12:00,
2013-03-20 22:17:00,59.8,37.3,29.92,WSW,248,6.0,8.0,43,0.00,,CLR,0.00,VWS V14.01,2013-03-21 05:17:00,
2013-03-20 22:22:00,59.6,37.7,29.91,West,278,7.0,20.0,44,0.00,,CLR,0.00,VWS V14.01,2013-03-21 05:22:00,
2013-03-20 22:27:00,59.5,37.6,29.91,West,273,12.0,18.0,44,0.00,,CLR,0.00,VWS V14.01,2013-03-21 05:27:00,
2013-03-20 22:33:00,59.4,37.5,29.91,West,273,8.0,19.0,44,0.00,,CLR,0.00,VWS V14.01,2013-03-21 05:33:00,
2013-03-20 22:38:00,59.1,37.2,29.91,West,277,11.0,11.0,44,0.00,,CLR,0.00,VWS V14.01,2013-03-21 05:38:00,
2013-03-20 22:43:00,59.0,37.1,29.91,West,273,13.0,13.0,44,0.00,,CLR,0.00,VWS V14.01,2013-03-21 05:43:00,
2013-03-20 22:48:00,58.9,37.6,29.91,West,272,13.0,13.0,45,0.00,,CLR,0.00,VWS V14.01,2013-03-21 05:48:00,
2013-03-20 22:53:00,59.0,37.7,29.91,WSW,252,5.0,8.0,45,0.00,,CLR,0.00,VWS V14.01,2013-03-21 05:53:00,
2013-03-20 22:58:00,59.1,37.8,29.91,West,265,4.0,4.0,45,0.00,,CLR,0.00,VWS V14.01,2013-03-21 05:58:00,
2013-03-20 23:03:00,59.0,37.7,29.91,WSW,254,3.0,7.0,45,0.00,,CLR,0.00,VWS V14.01,2013-03-21 06:03:00,
2013-03-20 23:08:00,58.9,37.6,29.91,WSW,250,4.0,5.0,45,0.00,,CLR,0.00,VWS V14.01,2013-03-21 06:08:00,
2013-03-20 23:15:00,58.9,37.6,29.91,SW,228,13.0,13.0,45,0.00,,CLR,0.00,VWS V14.01,2013-03-21 06:15:00,
2013-03-20 23:20:00,59.0,37.7,29.90,WSW,237,3.0,8.0,45,0.00,,CLR,0.00,VWS V14.01,2013-03-21 06:20:00,
2013-03-20 23:25:00,58.9,37.6,29.90,WSW,238,2.0,6.0,45,0.00,,CLR,0.00,VWS V14.01,2013-03-21 06:25:00,
2013-03-20 23:30:00,58.8,38.1,29.90,WSW,242,10.0,11.0,46,0.00,,CLR,0.00,VWS V14.01,2013-03-21 06:30:00,
2013-03-20 23:35:00,58.9,37.6,29.90,West,267,7.0,15.0,45,0.00,,CLR,0.00,VWS V14.01,2013-03-21 06:35:00,
2013-03-20 23:41:00,58.9,37.6,29.90,West,273,6.0,11.0,45,0.00,,CLR,0.00,VWS V14.01,2013-03-21 06:41:00,
2013-03-20 23:46:00,58.9,38.2,29.89,WNW,282,11.0,16.0,46,0.00,,CLR,0.00,VWS V14.01,2013-03-21 06:46:00,
2013-03-20 23:52:00,58.9,37.6,29.90,WNW,299,12.0,14.0,45,0.00,,CLR,0.00,VWS V14.01,2013-03-21 06:52:00,
2013-03-20 23:57:00,58.9,38.2,29.90,West,261,8.0,15.0,46,0.00,,CLR,0.00,VWS V14.01,2013-03-21 06:57:00,